Time;durP1;ratioP1;P1;durP2;ratioP2;P2;SDS_P1;SDS_P2;PMS_P1;PMS_P2;Temp;Humidity;BMP_temperature;BMP_pressure;BME280_temperature;BME280_humidity;BME280_pressure;Samples;Min_cycle;Max_cycle;Signal;HPM_P1;HPM_P2
2022/04/06 00:01:55;;;;;;;6.10;4.78;;;;;;;6.66;87.56;97913.31;4130894;85;21028;-88
2022/04/06 00:07:57;;;;;;;6.87;4.80;;;;;;;6.66;87.48;97911.95;4128941;85;21615;-88
2022/04/06 00:13:59;;;;;;;5.30;4.00;;;;;;;6.59;87.46;97903.74;4132007;85;21086;-89
2022/04/06 00:20:01;;;;;;;5.47;4.03;;;;;;;6.60;87.56;97908.02;4127430;85;21078;-87
2022/04/06 00:26:05;;;;;;;5.70;4.40;;;;;;;6.62;87.62;97905.71;4126791;85;21103;-86
2022/04/06 00:32:07;;;;;;;5.83;4.15;;;;;;;6.59;87.68;97912.47;4127631;85;21039;-87
2022/04/06 00:38:09;;;;;;;6.33;3.83;;;;;;;6.65;87.65;97916.41;4140423;85;21023;-89
2022/04/06 00:44:18;;;;;;;5.70;3.52;;;;;;;6.73;87.59;97913.39;4138921;84;21027;-88
2022/04/06 00:50:20;;;;;;;4.78;3.92;;;;;;;6.67;87.43;97908.06;4136649;85;21475;-87
2022/04/06 00:56:22;;;;;;;4.53;3.25;;;;;;;6.58;87.51;97912.27;4135083;84;21528;-88
2022/04/06 01:02:25;;;;;;;4.80;3.80;;;;;;;6.43;87.82;97901.83;4135110;84;21087;-89
2022/04/06 01:08:27;;;;;;;6.83;4.03;;;;;;;6.26;88.04;97897.00;4138360;85;21535;-87
2022/04/06 01:14:28;;;;;;;5.33;3.80;;;;;;;6.16;88.16;97899.81;4137684;84;21054;-88
2022/04/06 01:20:30;;;;;;;5.15;3.87;;;;;;;6.15;88.36;97897.47;4145573;84;21102;-86
2022/04/06 01:26:34;;;;;;;5.87;4.30;;;;;;;6.11;88.23;97900.14;4140175;84;21008;-87
2022/04/06 01:32:35;;;;;;;7.17;3.65;;;;;;;6.05;88.42;97895.41;4137511;84;21098;-88
2022/04/06 01:38:37;;;;;;;7.10;4.70;;;;;;;6.19;88.87;97892.27;4135815;85;21008;-88
2022/04/06 01:44:38;;;;;;;6.75;4.20;;;;;;;6.35;88.99;97886.03;4138161;85;21096;-88
2022/04/06 01:56:59;;;;;;;6.12;4.75;;;;;;;6.76;89.03;97896.89;4139084;85;21020;-89
2022/04/06 02:03:02;;;;;;;5.15;4.33;;;;;;;6.95;88.80;97894.73;4134960;85;22056;-86
2022/04/06 02:09:03;;;;;;;5.62;4.53;;;;;;;7.13;88.39;97897.55;4135401;84;21082;-88
2022/04/06 02:15:08;;;;;;;6.95;4.75;;;;;;;7.22;88.44;97898.03;4137164;85;21653;-87
2022/04/06 02:21:10;;;;;;;5.60;4.40;;;;;;;7.27;88.33;97897.08;4139348;85;21087;-88
2022/04/06 02:27:11;;;;;;;5.30;4.33;;;;;;;7.29;88.28;97905.66;4139029;84;22016;-89
2022/04/06 02:33:13;;;;;;;6.03;4.53;;;;;;;7.30;88.25;97900.41;4135325;85;21598;-88
2022/04/06 02:39:14;;;;;;;6.42;4.85;;;;;;;7.35;88.00;97908.22;4143403;85;21070;-88
2022/04/06 02:45:16;;;;;;;6.47;4.17;;;;;;;7.47;87.60;97897.61;4142069;85;22296;-88
2022/04/06 02:51:17;;;;;;;5.53;4.17;;;;;;;7.49;87.75;97897.98;4139516;85;21017;-87
2022/04/06 02:57:19;;;;;;;4.58;4.03;;;;;;;7.47;87.81;97890.80;4141250;85;21055;-88
2022/04/06 03:03:21;;;;;;;5.80;4.30;;;;;;;7.48;87.76;97899.95;4139012;85;21031;-88
2022/04/06 03:09:23;;;;;;;5.87;4.47;;;;;;;7.51;87.63;97895.10;4135315;85;21066;-88
2022/04/06 03:15:24;;;;;;;5.28;4.20;;;;;;;7.51;87.67;97907.35;4141758;84;21098;-87
2022/04/06 03:21:25;;;;;;;5.72;4.60;;;;;;;7.53;87.72;97913.17;4138388;85;21444;-88
2022/04/06 03:27:27;;;;;;;5.80;4.33;;;;;;;7.48;87.67;97913.56;4138710;85;21059;-88
2022/04/06 03:33:29;;;;;;;6.25;5.25;;;;;;;7.50;87.71;97916.66;4136635;85;21012;-87
2022/04/06 03:39:30;;;;;;;5.40;4.17;;;;;;;7.50;87.71;97926.20;4139127;84;21023;-87
2022/04/06 03:45:32;;;;;;;6.40;4.40;;;;;;;7.54;87.58;97927.59;4140280;85;21003;-87
2022/04/06 03:51:35;;;;;;;5.25;4.17;;;;;;;7.51;87.64;97918.81;4136809;84;21133;-87
2022/04/06 03:57:38;;;;;;;6.40;4.45;;;;;;;7.54;87.61;97923.50;4140655;84;21014;-87
2022/04/06 04:03:39;;;;;;;8.15;4.75;;;;;;;7.54;87.74;97932.46;4125717;85;21038;-88
2022/04/06 04:09:41;;;;;;;6.62;4.42;;;;;;;7.53;87.66;97932.23;4138507;84;22030;-88
2022/04/06 04:15:42;;;;;;;6.25;4.80;;;;;;;7.54;87.55;97935.75;4143444;85;20956;-86
2022/04/06 04:21:43;;;;;;;6.80;4.70;;;;;;;7.54;87.52;97939.84;4134456;84;20995;-87
2022/04/06 04:27:45;;;;;;;4.97;3.90;;;;;;;7.56;87.51;97942.97;4137310;85;21023;-87
2022/04/06 04:33:46;;;;;;;6.97;5.10;;;;;;;7.55;87.65;97937.31;4133134;85;21703;-86
2022/04/06 04:39:48;;;;;;;8.30;5.30;;;;;;;7.60;87.50;97941.83;4129193;85;21098;-86
2022/04/06 04:45:49;;;;;;;8.78;5.37;;;;;;;7.69;87.41;97951.01;4132569;85;21071;-88
2022/04/06 04:51:52;;;;;;;7.60;5.17;;;;;;;7.76;87.27;97947.77;4107916;85;21122;-89
2022/04/06 04:57:55;;;;;;;8.73;5.53;;;;;;;7.84;87.05;97952.66;4131713;85;21015;-89
2022/04/06 05:03:56;;;;;;;6.92;5.15;;;;;;;7.92;86.96;97967.89;4128455;85;21525;-88
2022/04/06 05:09:58;;;;;;;6.17;4.42;;;;;;;7.98;86.85;97972.59;4125713;85;21024;-88
2022/04/06 05:15:59;;;;;;;5.62;4.40;;;;;;;8.02;86.82;97973.95;4129093;85;21031;-88
2022/04/06 05:22:01;;;;;;;5.05;4.20;;;;;;;8.06;86.92;97984.31;4128155;85;22134;-88
2022/04/06 05:28:03;;;;;;;6.87;4.87;;;;;;;8.14;87.05;97994.66;4124522;85;21531;-86
2022/04/06 05:34:06;;;;;;;7.45;5.00;;;;;;;8.25;86.85;98003.13;4131353;85;21051;-87
2022/04/06 05:40:10;;;;;;;6.83;5.10;;;;;;;8.39;86.70;98016.03;4131987;85;21078;-87
2022/04/06 05:46:12;;;;;;;7.08;4.70;;;;;;;8.47;86.70;98010.20;4137962;84;21070;-87
2022/04/06 05:52:14;;;;;;;6.90;5.00;;;;;;;8.57;86.67;98011.41;4141995;84;21038;-86
2022/04/06 05:58:16;;;;;;;8.75;4.80;;;;;;;8.69;86.67;98018.66;4138076;85;21027;-87
2022/04/06 06:04:17;;;;;;;5.05;4.47;;;;;;;8.86;86.44;98030.23;4136868;85;21079;-86
2022/04/06 06:10:19;;;;;;;8.30;5.58;;;;;;;8.98;85.68;98035.31;4139494;85;21583;-87
2022/04/06 06:16:23;;;;;;;7.47;5.25;;;;;;;9.08;85.73;98032.41;4142462;85;21098;-89
2022/04/06 06:22:24;;;;;;;6.80;5.40;;;;;;;9.24;85.79;98025.40;4141766;84;21045;-86
2022/04/06 06:28:27;;;;;;;14.07;5.58;;;;;;;9.49;85.67;98024.82;4129747;85;21067;-87
2022/04/06 06:34:29;;;;;;;12.82;5.37;;;;;;;9.97;85.64;98033.38;4137245;84;21921;-87
2022/04/06 06:40:31;;;;;;;6.83;5.08;;;;;;;10.39;83.83;98034.66;4135442;85;22250;-90
2022/04/06 06:46:35;;;;;;;5.37;3.92;;;;;;;10.72;80.87;98025.13;4134578;85;21681;-87
2022/04/06 06:52:36;;;;;;;6.75;3.83;;;;;;;11.17;79.95;98030.13;4129722;85;22309;-87
2022/04/06 06:58:38;;;;;;;6.15;4.08;;;;;;;11.33;80.64;98032.58;4134014;85;21459;-87
2022/04/06 07:04:41;;;;;;;7.20;4.17;;;;;;;11.39;78.30;98037.03;4130139;85;21098;-88
2022/04/06 07:10:46;;;;;;;6.83;3.67;;;;;;;11.25;78.52;98038.50;4112225;85;21586;-86
2022/04/06 07:16:48;;;;;;;6.30;3.30;;;;;;;11.00;78.56;98042.19;4129512;85;21127;-89
2022/04/06 07:22:53;;;;;;;4.25;3.10;;;;;;;10.89;78.56;98048.31;4132341;85;21000;-88
2022/04/06 07:28:54;;;;;;;9.90;3.33;;;;;;;10.75;78.63;98052.49;4129428;85;21019;-88
2022/04/06 07:34:56;;;;;;;4.78;2.92;;;;;;;10.67;78.55;98059.17;4132295;85;21055;-86
2022/04/06 07:40:58;;;;;;;4.50;3.05;;;;;;;10.62;78.16;98069.73;4125863;85;21642;-86
2022/04/06 07:47:00;;;;;;;7.90;3.08;;;;;;;10.58;78.28;98063.51;4137135;85;21087;-87
2022/04/06 07:53:02;;;;;;;6.08;3.10;;;;;;;10.70;78.01;98059.74;4138829;85;21059;-88
2022/04/06 07:59:05;;;;;;;6.30;3.58;;;;;;;10.77;78.14;98058.94;4134728;84;21020;-88
2022/04/06 08:05:08;;;;;;;6.33;3.10;;;;;;;10.88;77.46;98059.67;4139272;85;21142;-87
2022/04/06 08:11:09;;;;;;;5.25;3.37;;;;;;;11.11;76.95;98070.88;4138402;85;21693;-89
2022/04/06 08:17:11;;;;;;;3.83;2.83;;;;;;;11.32;76.95;98065.28;4137315;85;21035;-87
2022/04/06 08:23:12;;;;;;;5.20;3.02;;;;;;;11.67;75.63;98076.58;4148463;85;21035;-87
2022/04/06 08:29:13;;;;;;;5.87;3.08;;;;;;;11.86;76.23;98073.30;4156258;85;21051;-87
2022/04/06 08:35:17;;;;;;;4.87;2.80;;;;;;;12.20;75.24;98063.95;4144004;85;21087;-87
2022/04/06 08:41:20;;;;;;;4.37;2.85;;;;;;;12.49;71.42;98060.33;4130801;85;21051;-88
2022/04/06 08:47:22;;;;;;;3.62;2.77;;;;;;;12.48;74.04;98068.38;4119628;85;21043;-89
2022/04/06 08:53:24;;;;;;;3.55;2.92;;;;;;;12.43;72.69;98073.70;4133088;85;20995;-85
2022/04/06 08:59:26;;;;;;;4.78;3.80;;;;;;;12.18;72.74;98077.30;4135179;85;21032;-87
2022/04/06 09:05:29;;;;;;;4.28;3.22;;;;;;;11.90;73.75;98095.39;4125959;85;21049;-86
2022/04/06 09:11:42;;;;;;;4.53;3.30;;;;;;;11.77;74.02;98094.34;4128284;85;21607;-88
2022/04/06 09:17:47;;;;;;;5.53;4.33;;;;;;;11.66;74.79;98089.53;4121566;85;21057;-88
2022/04/06 09:23:49;;;;;;;4.50;3.33;;;;;;;11.62;75.49;98087.97;4127762;85;21051;-87
2022/04/06 09:29:51;;;;;;;5.12;3.10;;;;;;;11.52;74.85;98081.38;4133597;85;21066;-89
2022/04/06 09:35:55;;;;;;;4.25;3.12;;;;;;;11.45;75.21;98088.87;4122570;85;21993;-87
2022/04/06 09:42:01;;;;;;;3.83;3.20;;;;;;;11.53;75.16;98087.63;4142801;85;21015;-88
2022/04/06 09:48:06;;;;;;;4.33;3.20;;;;;;;11.50;75.22;98099.39;4139734;85;21023;-87
2022/04/06 09:54:13;;;;;;;;;;;;;;;11.42;75.89;98088.28;4129328;85;21058;-86
2022/04/06 10:00:19;;;;;;;3.35;2.80;;;;;;;11.30;76.54;98085.45;4139007;84;20110;-88
2022/04/06 10:06:22;;;;;;;4.00;2.80;;;;;;;11.37;76.98;98081.88;4140349;85;21055;-88
2022/04/06 10:12:25;;;;;;;5.15;3.20;;;;;;;11.71;76.75;98063.64;4148011;84;21039;-89
2022/04/06 10:18:29;;;;;;;3.60;2.33;;;;;;;12.05;76.05;98048.84;4141322;84;21170;-85
2022/04/06 10:25:15;;;;;;;5.15;2.20;;;;;;;13.32;75.78;98059.07;4142676;84;21082;-87
2022/04/06 10:31:26;;;;;;;2.65;2.08;;;;;;;14.93;73.15;98058.16;4146155;84;21071;-87
2022/04/06 10:37:25;;;;;;;4.12;2.27;;;;;;;15.41;69.03;98049.27;4137557;84;21004;-87
2022/04/06 10:43:43;;;;;;;3.10;2.10;;;;;;;15.64;69.19;98046.35;4131600;85;21103;-90
2022/04/06 10:50:07;;;;;;;2.60;2.05;;;;;;;15.73;64.73;98041.59;4119384;85;21038;-87
2022/04/06 10:56:16;;;;;;;2.60;2.10;;;;;;;15.76;63.08;98045.66;4125958;85;21567;-85
2022/04/06 11:02:26;;;;;;;2.77;2.20;;;;;;;15.63;64.16;98040.05;4126482;85;21058;-86
2022/04/06 11:15:19;;;;;;;2.08;1.40;;;;;;;15.36;64.98;98046.36;4133386;85;20995;-85
2022/04/06 11:21:20;;;;;;;3.65;1.80;;;;;;;15.45;60.67;98040.30;4129474;85;20984;-86
2022/04/06 11:27:32;;;;;;;2.77;1.70;;;;;;;16.51;59.40;98030.88;4131253;85;21119;-86
2022/04/06 11:33:42;;;;;;;2.87;1.80;;;;;;;17.38;56.58;98030.09;4131600;85;21068;-84
2022/04/06 11:39:44;;;;;;;1.35;1.20;;;;;;;17.77;56.42;98018.58;4144926;85;21095;-87
2022/04/06 11:45:47;;;;;;;4.83;1.30;;;;;;;18.02;55.02;98017.92;4143483;85;21093;-85
2022/04/06 11:51:50;;;;;;;7.95;2.50;;;;;;;17.93;53.20;98015.04;4138652;84;21123;-87
2022/04/06 11:57:53;;;;;;;8.45;2.75;;;;;;;17.76;55.04;98003.95;4135842;85;21095;-85
2022/04/06 12:03:58;;;;;;;2.87;1.50;;;;;;;17.86;55.31;98004.22;4140865;84;21023;-85
2022/04/06 12:09:59;;;;;;;1.52;1.12;;;;;;;17.63;50.60;97990.77;4146619;84;21062;-87
2022/04/06 12:16:02;;;;;;;3.77;1.40;;;;;;;17.50;52.78;97977.55;4137900;84;21476;-86
2022/04/06 12:22:07;;;;;;;3.15;1.92;;;;;;;17.29;50.48;97979.57;4148836;85;21115;-85
2022/04/06 12:28:27;;;;;;;1.32;0.90;;;;;;;17.29;52.44;97976.05;4139165;85;21015;-85
2022/04/06 12:34:40;;;;;;;2.02;1.40;;;;;;;17.32;51.72;97966.86;4142603;85;21070;-86
2022/04/06 12:40:43;;;;;;;1.85;1.27;;;;;;;16.98;49.68;97956.45;4139456;84;21024;-86
2022/04/06 12:46:48;;;;;;;2.17;1.40;;;;;;;16.81;51.23;97957.77;4129550;85;21654;-88
2022/04/06 12:53:07;;;;;;;2.42;1.22;;;;;;;16.50;50.91;97952.59;4134913;85;21039;-85
2022/04/06 12:59:10;;;;;;;3.40;1.37;;;;;;;16.27;51.23;97945.93;4129323;85;21063;-86
2022/04/06 13:05:15;;;;;;;2.80;1.30;;;;;;;16.00;51.28;97938.59;4126857;85;21618;-86
2022/04/06 13:11:16;;;;;;;9.50;1.85;;;;;;;16.44;51.80;97920.60;4130321;85;21032;-85
2022/04/06 13:17:18;;;;;;;9.93;2.00;;;;;;;16.53;51.47;97913.81;4134274;85;21086;-85
2022/04/06 13:23:20;;;;;;;2.05;1.37;;;;;;;16.84;50.28;97914.84;4130814;85;21051;-86
2022/04/06 13:29:21;;;;;;;3.40;1.50;;;;;;;16.32;51.11;97913.02;4130402;85;21000;-86
2022/04/06 13:35:23;;;;;;;2.27;1.20;;;;;;;15.85;52.98;97909.84;3969532;88;22379;-88
2022/04/06 13:41:24;;;;;;;3.65;1.40;;;;;;;15.55;52.99;97908.27;3985284;88;21646;-86
2022/04/06 13:47:25;;;;;;;1.98;1.52;;;;;;;15.54;53.65;97900.59;4009727;88;21062;-85
2022/04/06 13:53:27;;;;;;;3.37;1.65;;;;;;;15.81;53.53;97899.48;4024353;87;21619;-87
2022/04/06 13:59:28;;;;;;;1.95;1.47;;;;;;;15.67;52.63;97881.34;4016313;87;21572;-85
2022/04/06 14:05:31;;;;;;;2.72;1.52;;;;;;;15.65;53.36;97871.33;4037955;86;22393;-87
2022/04/06 14:11:33;;;;;;;4.50;1.85;;;;;;;15.67;53.86;97864.78;4004237;87;21055;-85
2022/04/06 14:17:36;;;;;;;2.70;1.55;;;;;;;15.92;52.98;97855.81;3994291;87;21102;-85
2022/04/06 14:23:40;;;;;;;3.67;1.90;;;;;;;15.90;53.52;97852.11;3971685;88;21127;-88
2022/04/06 14:29:41;;;;;;;2.92;1.75;;;;;;;16.29;52.99;97834.41;4000013;87;21060;-87
2022/04/06 14:35:43;;;;;;;3.62;1.35;;;;;;;16.49;51.33;97838.55;3993204;88;21094;-86
2022/04/06 14:41:44;;;;;;;3.02;2.00;;;;;;;16.50;52.42;97825.52;3991057;88;21059;-85
2022/04/06 14:47:46;;;;;;;2.02;1.57;;;;;;;16.70;51.96;97833.75;3990149;88;21051;-86
2022/04/06 14:53:48;;;;;;;2.52;1.32;;;;;;;16.59;51.77;97820.87;3987571;88;21946;-87
2022/04/06 14:59:49;;;;;;;3.35;2.05;;;;;;;16.31;51.50;97820.94;3997945;88;21029;-87
2022/04/06 15:05:50;;;;;;;3.20;1.80;;;;;;;16.13;51.61;97812.42;3991606;88;21507;-87
2022/04/06 15:11:52;;;;;;;2.72;1.72;;;;;;;15.85;52.22;97809.88;3990643;88;21047;-86
2022/04/06 15:17:57;;;;;;;2.60;1.55;;;;;;;15.74;52.35;97797.61;4057911;86;21088;-86
2022/04/06 15:23:58;;;;;;;3.25;1.87;;;;;;;15.73;52.94;97781.65;3987760;87;21074;-88
2022/04/06 15:29:59;;;;;;;3.37;1.90;;;;;;;15.67;53.34;97786.16;4060569;86;20984;-88
2022/04/06 15:42:26;;;;;;;3.35;2.02;;;;;;;15.55;53.76;97776.63;4071040;86;21095;-87
2022/04/06 15:48:27;;;;;;;4.10;2.27;;;;;;;15.42;54.03;97768.16;4069674;86;21609;-86
2022/04/06 15:54:29;;;;;;;3.72;2.00;;;;;;;15.25;54.31;97770.13;4067697;86;21079;-85
2022/04/06 16:00:30;;;;;;;5.03;2.10;;;;;;;15.13;54.72;97763.97;4076405;86;21106;-85
2022/04/06 16:06:32;;;;;;;6.17;2.27;;;;;;;15.04;55.17;97753.39;4068339;86;21070;-86
2022/04/06 16:12:35;;;;;;;4.85;2.80;;;;;;;14.97;55.48;97750.84;4063545;86;21090;-87
2022/04/06 16:18:36;;;;;;;5.50;2.70;;;;;;;14.91;55.75;97747.06;4066527;86;21051;-86
2022/04/06 16:24:37;;;;;;;4.35;2.47;;;;;;;14.79;56.51;97740.86;4068634;86;21524;-84
2022/04/06 16:30:39;;;;;;;4.58;2.70;;;;;;;14.61;56.95;97733.03;3957136;86;10000557;-85
2022/04/06 16:36:44;;;;;;;5.30;2.60;;;;;;;14.48;57.02;97724.53;4092024;86;21485;-87
2022/04/06 16:42:45;;;;;;;4.50;2.58;;;;;;;14.41;57.68;97724.72;4070434;86;21115;-87
2022/04/06 16:48:47;;;;;;;6.62;2.70;;;;;;;14.28;57.81;97713.63;4060216;87;21071;-86
2022/04/06 16:54:48;;;;;;;5.75;2.87;;;;;;;14.21;58.00;97722.00;4071918;86;21873;-85
2022/04/06 17:00:50;;;;;;;8.85;4.58;;;;;;;14.06;58.27;97705.03;4070211;86;21047;-86
2022/04/06 17:06:51;;;;;;;14.05;7.10;;;;;;;13.91;58.86;97709.91;4063099;87;21126;-85
2022/04/06 17:12:53;;;;;;;18.73;9.88;;;;;;;13.72;59.03;97699.14;4067191;86;21087;-86
2022/04/06 17:18:55;;;;;;;19.80;9.63;;;;;;;13.60;59.10;97693.52;4066256;87;21083;-86
2022/04/06 17:24:57;;;;;;;15.05;7.33;;;;;;;13.45;59.26;97698.53;4066719;87;21039;-86
2022/04/06 17:30:58;;;;;;;13.53;7.33;;;;;;;13.30;59.37;97690.41;4060228;87;21007;-85
2022/04/06 17:37:00;;;;;;;11.30;5.95;;;;;;;13.14;59.58;97690.95;4064891;87;21118;-84
2022/04/06 17:43:01;;;;;;;110.63;37.10;;;;;;;13.00;60.04;97686.50;4081832;86;21492;-85
2022/04/06 17:49:08;;;;;;;81.45;38.38;;;;;;;12.80;60.40;97685.67;4136473;85;22011;-86
2022/04/06 17:55:06;;;;;;;18.48;9.00;;;;;;;12.56;60.79;97691.00;4140863;84;21016;-86
2022/04/06 18:01:07;;;;;;;19.10;10.10;;;;;;;12.22;61.25;97688.45;4135752;85;20984;-86
2022/04/06 18:07:09;;;;;;;14.98;9.38;;;;;;;11.95;61.82;97695.92;4145010;85;21546;-86
2022/04/06 18:19:30;;;;;;;25.85;10.00;;;;;;;11.59;62.86;97699.57;4145262;85;21019;-85
2022/04/06 18:25:31;;;;;;;20.43;11.38;;;;;;;11.38;63.38;97697.09;4139855;85;21000;-85
2022/04/06 18:31:32;;;;;;;33.02;14.07;;;;;;;11.14;63.80;97701.69;4149343;85;21479;-86
2022/04/06 18:37:34;;;;;;;25.43;14.20;;;;;;;10.87;64.39;97698.86;4150297;85;21484;-86
2022/04/06 18:43:36;;;;;;;37.88;19.62;;;;;;;10.69;65.05;97696.91;4141648;85;20988;-87
2022/04/06 18:49:37;;;;;;;37.83;21.20;;;;;;;10.51;65.60;97695.50;4141359;85;20956;-86
2022/04/06 18:55:39;;;;;;;37.95;21.10;;;;;;;10.35;66.05;97699.37;4139397;84;21051;-86
2022/04/06 19:01:42;;;;;;;42.13;19.87;;;;;;;10.20;66.56;97695.19;4148862;85;21024;-85
2022/04/06 19:07:44;;;;;;;42.45;21.77;;;;;;;9.99;66.82;97681.67;4148328;84;21855;-87
2022/04/06 19:13:46;;;;;;;42.85;24.32;;;;;;;9.75;67.39;97686.72;4152205;85;21620;-86
2022/04/06 19:19:47;;;;;;;39.55;21.05;;;;;;;9.55;67.86;97698.75;4141785;84;21016;-85
2022/04/06 19:25:48;;;;;;;41.20;21.82;;;;;;;9.37;68.31;97691.22;4141171;85;22044;-85
2022/04/06 19:31:51;;;;;;;33.92;19.50;;;;;;;9.25;69.08;97697.14;4140484;84;21293;-86
2022/04/06 19:37:52;;;;;;;41.20;22.27;;;;;;;9.17;69.51;97692.88;4144928;84;21020;-85
2022/04/06 19:43:54;;;;;;;42.38;22.98;;;;;;;9.09;69.91;97686.67;4141979;84;21015;-86
2022/04/06 19:49:55;;;;;;;45.00;23.83;;;;;;;8.99;70.32;97684.75;4149546;85;21880;-86
2022/04/06 19:55:57;;;;;;;40.83;20.20;;;;;;;8.83;70.42;97674.86;4141424;85;21062;-86
2022/04/06 20:01:59;;;;;;;43.00;19.50;;;;;;;8.57;70.67;97670.45;4133012;85;21054;-86
2022/04/06 20:08:00;;;;;;;41.53;20.15;;;;;;;8.39;71.18;97672.44;4143741;85;21158;-87
2022/04/06 20:14:02;;;;;;;44.60;21.93;;;;;;;8.28;71.58;97671.09;4130358;85;21640;-87
2022/04/06 20:20:04;;;;;;;44.77;22.42;;;;;;;8.11;72.16;97658.80;4132209;85;21070;-87
2022/04/06 20:26:07;;;;;;;44.30;22.50;;;;;;;8.03;72.62;97660.77;4135519;85;21051;-87
2022/04/06 20:32:09;;;;;;;47.13;24.67;;;;;;;7.97;72.78;97653.55;4142066;85;21567;-87
2022/04/06 20:38:11;;;;;;;50.58;26.45;;;;;;;7.80;72.59;97633.10;4141181;85;21107;-86
2022/04/06 20:44:15;;;;;;;56.68;29.05;;;;;;;7.58;73.27;97638.37;4140658;85;21548;-86
2022/04/06 20:50:17;;;;;;;73.33;36.83;;;;;;;7.46;73.72;97624.53;4136834;84;21043;-85
2022/04/06 20:56:18;;;;;;;61.18;29.50;;;;;;;7.31;73.88;97620.81;4138095;84;21007;-86
2022/04/06 21:02:22;;;;;;;59.00;26.33;;;;;;;7.17;74.65;97612.62;4139972;84;21071;-86
2022/04/06 21:08:23;;;;;;;47.38;24.20;;;;;;;7.24;74.93;97605.81;4151216;84;21106;-86
2022/04/06 21:14:24;;;;;;;56.40;27.70;;;;;;;7.07;75.15;97600.53;4137981;85;21071;-86
2022/04/06 21:20:29;;;;;;;63.70;33.67;;;;;;;6.99;75.23;97601.68;4138086;85;21023;-86
2022/04/06 21:26:29;;;;;;;58.10;28.52;;;;;;;6.85;75.84;97599.48;4137907;84;21051;-86
2022/04/06 21:32:31;;;;;;;55.50;25.90;;;;;;;6.66;75.73;97592.42;4141417;84;21048;-86
2022/04/06 21:38:33;;;;;;;64.82;31.52;;;;;;;6.40;75.98;97596.19;4137146;84;21078;-86
2022/04/06 21:44:34;;;;;;;59.38;30.97;;;;;;;6.37;76.44;97586.67;4141856;85;21138;-87
2022/04/06 21:50:36;;;;;;;48.23;27.30;;;;;;;6.25;76.70;97578.83;4139601;84;21027;-87
2022/04/06 21:56:37;;;;;;;63.17;36.68;;;;;;;6.20;76.82;97567.74;4162301;84;21031;-86
2022/04/06 22:02:39;;;;;;;50.85;26.87;;;;;;;5.97;76.97;97566.44;4141231;85;21063;-86
2022/04/06 22:08:41;;;;;;;56.73;29.15;;;;;;;5.81;77.97;97553.12;4138106;85;20999;-87
2022/04/06 22:14:44;;;;;;;60.28;30.88;;;;;;;5.83;78.30;97551.41;4145036;85;21004;-86
2022/04/06 22:20:47;;;;;;;75.87;34.67;;;;;;;5.73;78.30;97549.39;4139433;85;21043;-85
2022/04/06 22:26:48;;;;;;;73.35;34.55;;;;;;;5.59;78.78;97547.33;4141142;84;21086;-85
2022/04/06 22:32:49;;;;;;;65.62;33.70;;;;;;;5.51;79.57;97541.64;4147668;85;21015;-87
2022/04/06 22:38:50;;;;;;;66.67;31.33;;;;;;;5.43;79.48;97535.98;4157819;85;21031;-87
2022/04/06 22:44:52;;;;;;;63.00;32.53;;;;;;;5.28;79.51;97530.82;4156375;85;21039;-86
2022/04/06 22:50:53;;;;;;;60.50;29.20;;;;;;;5.16;79.61;97522.95;4153159;84;21046;-87
2022/04/06 22:56:55;;;;;;;74.87;35.13;;;;;;;5.09;80.19;97523.66;4146134;85;21622;-86
2022/04/06 23:02:56;;;;;;;81.95;36.68;;;;;;;4.94;82.96;97513.05;4160144;85;20992;-87
2022/04/06 23:08:57;;;;;;;65.67;34.25;;;;;;;4.95;81.37;97501.08;4150986;84;21585;-86
2022/04/06 23:14:58;;;;;;;71.15;37.08;;;;;;;4.91;81.38;97500.25;4148019;84;21024;-86
2022/04/06 23:21:01;;;;;;;71.53;40.00;;;;;;;4.97;81.57;97487.91;4141344;85;20976;-87
2022/04/06 23:27:05;;;;;;;86.37;41.53;;;;;;;5.00;82.23;97490.66;4136159;85;21036;-86
2022/04/06 23:33:06;;;;;;;76.45;39.40;;;;;;;4.80;81.97;97485.24;4132995;84;21030;-86
2022/04/06 23:39:08;;;;;;;66.95;34.35;;;;;;;4.81;82.26;97469.17;4142245;84;21130;-86
2022/04/06 23:45:09;;;;;;;81.67;39.25;;;;;;;5.01;83.17;97460.25;4141057;85;21091;-86
2022/04/06 23:51:11;;;;;;;66.53;34.80;;;;;;;4.92;82.50;97462.51;4143756;85;21464;-86
2022/04/06 23:57:12;;;;;;;70.12;35.50;;;;;;;4.87;83.42;97447.33;4144317;85;21047;-85
